TFM - Tactical Decision Aid (Experimental) INFO Settings
ID: Runway Winds: CIG/VIS Threshold: METAR Board: Map:

KCAE - Columbia Metro

Updated at: 0506 UTC 18 Feb 2018
Latest TAF at: 0347 UTC 18 Feb 2018

TAF Board

Time0456Z18/06Z18/07Z18/08Z18/09Z18/10Z18/11Z18/12Z18/13Z18/14Z18/15Z18/16Z18/17Z18/18Z
TypeOBSPRVLPRVLPRVLPRVLPRVLPRVLPRVLPRVLPRVLPRVLPRVLPRVLPRVL
VIS10>6>6>6>6>6>6>6>6>6>6>6>6>6
CIG--35353590909090909090909050
CoverCLRBKNBKNBKNBKNBKNBKNBKNBKNBKNBKNBKNBKNOVC
FltCatVFRVFRVFRVFRVFRVFRVFRVFRVFRVFRVFRVFRVFRVFR
WX----------------------------
WDir32028028028032032032032032032032032032090
WSpd35555555555555
WGst----------------------------
TAF
KCAE 180347Z 1804/1824 VRB05KT P6SM SCT050 BKN090 WS020/25035KT
  FM180600 28005KT P6SM BKN035
  FM180900 32005KT P6SM SCT040 BKN090
  FM181800 09005KT P6SM OVC050


METAR
KCAE 180456Z 32003KT 10SM CLR 13/11 A3009 RMK AO2 SLP188 T01330106 402220122
KCAE 180356Z 23003KT 10SM FEW080 13/11 A3008 RMK AO2 SLP184 T01280106

TAF/METAR Board Legend

Potential Impact
  None Marginal Slight Moderate High
Visibility (sm) >5 3≤X≤5 2≤X<3 0.5≤X<2 <0.5
Ceiling (100 ft) >30 10≤X≤30 6≤X<10 2≤X<6 <2
Wind Speed (kt) <10 10≤X<20 20≤X<30 ≥30
Wind Gust (kt) <15 15≤X<25 25≤X<35 ≥35
Weather No Wx Reported VCTS -TS,-FZRA TS,FZRA +TS,+FZRA